Погода Ныкельна неделю

Великопольское воеводство, Польша

20 - 26 июля
  • 20июля
    Сегодня
    +15°
    +28°
    Практически безоблачно
    ВремяПогодаТемператураВлажностьДавлениеВетер, м/сВероятность осадков
    02:00Ясно и безоблачно+17°C81 %754 мм1.9 м/с2 %
    05:00Облачно с прояснениями+16°C87 %754 мм1.0 м/с2 %
    08:00Облачно с прояснениями+21°C70 %753 мм0.3 м/с2 %
    11:00Облачно с прояснениями+25°C47 %753 мм1.0 м/с2 %
    14:00Практически безоблачно+27°C42 %751 мм1.4 м/с2 %
    17:00Небольшая облачность+28°C40 %750 мм2.5 м/с2 %
    20:00Облачно с прояснениями+25°C55 %750 мм1.8 м/с2 %
    23:00Облачно с прояснениями+20°C69 %750 мм2.1 м/с2 %
  • 21июля
    Воскресенье
    +16°
    +30°
    Ясно и безоблачно
    ВремяПогодаТемператураВлажностьДавлениеВетер, м/сВероятность осадков
    02:00Ясно и безоблачно+18°C78 %750 мм1.9 м/с2 %
    05:00Ясно и безоблачно+16°C88 %749 мм2.3 м/с2 %
    08:00Ясно и безоблачно+22°C66 %749 мм0.9 м/с2 %
    11:00Ясно и безоблачно+27°C46 %749 мм1.4 м/с2 %
    14:00Ясно и безоблачно+28°C41 %749 мм1.8 м/с2 %
    17:00Ясно и безоблачно+29°C40 %748 мм2.4 м/с2 %
    20:00Ясно и безоблачно+27°C59 %748 мм1.7 м/с2 %
    23:00Ясно и безоблачно+21°C64 %749 мм3.0 м/с2 %
  • 22июля
    Понедельник
    +16°
    +30°
    Облачно с прояснениями
    ВремяПогодаТемператураВлажностьДавлениеВетер, м/сВероятность осадков
    02:00Ясно и безоблачно+19°C72 %749 мм2.1 м/с2 %
    05:00Ясно и безоблачно+17°C85 %749 мм1.9 м/с2 %
    08:00Ясно и безоблачно+23°C64 %749 мм1.4 м/с2 %
    11:00Практически безоблачно+28°C41 %749 мм1.3 м/с2 %
    14:00Облачно с прояснениями+31°C33 %749 мм1.8 м/с9 %
    17:00Облачно с прояснениями+28°C54 %750 мм3.1 м/с21 %
    20:00Небольшая облачность+27°C64 %750 мм1.9 м/с26 %
    23:00Небольшая облачность+22°C79 %751 мм3.0 м/с28 %
  • 23июля
    Вторник
    +14°
    +24°
    Практически безоблачно
    ВремяПогодаТемператураВлажностьДавлениеВетер, м/сВероятность осадков
    02:00Облачно с прояснениями, ливень+20°C90 %752 мм4.0 м/с39 %
    05:00Пасмурно, дождь+18°C94 %752 мм3.9 м/с37 %
    08:00Облачно с прояснениями+19°C86 %753 мм4.3 м/с31 %
    11:00Облачно с прояснениями+22°C62 %753 мм3.9 м/с29 %
    14:00Практически безоблачно+24°C49 %752 мм3.6 м/с33 %
    17:00Ясно и безоблачно+25°C43 %752 мм3.2 м/с26 %
    20:00Ясно и безоблачно+22°C64 %751 мм1.5 м/с21 %
    23:00Облачно с прояснениями+18°C75 %752 мм2.0 м/с18 %
Мы используем cookies
Соглашаюсь